Flood From: 18-02-2018 16:00 Until: 19-02-2018 16:00 warning for: Flood Level: Yellow info button

Although rather usual in this region, locally or potentially dangerous phenomena are expected. (such as local winds, summer thunderstorms, rising streams or high waves) Be aware and pay attention to the latest weather updates, especially if you carry out activities exposed to weather or close to a stream or shoreline. 


Meteo18 Weather Cam more information Meteo18 Weather Cam


Thunder radar more information blitzortung!


Rain radar more information rain snow radar


Visit our other weather sites:

Template documentation
and downloads

And another site



Weather Underground History page Text

Daily Summary for April 18, 2017 Units:  English    Metric   Both
« Previous Day
Next Day »
Daily Weekly Monthly Yearly Custom
  High: Low: Average:
Temperature: TemperatureC °F 2.7 °F 6.7 °F
Dew Point: DewpointC °F -0.9 °F 1.6 °F
Humidity: Humidity % 46 % 71 %
Wind Speed: WindSpeedKMH mph 0.0 mph 6.4 mph
Wind Gust: WindSpeedGustKMH mph - -
Wind:- - SSE
Pressure: PressurehPa in 1023.2 in -
Precipitation: 0.0 in    
Historical Graphs
 
 
Tabular Data for April 18, 2017
Time Temperature Dew Point Pressure Wind Wind Speed Wind Gust Humidity Rainfall Rate (Hourly)
TemperatureC °F DewpointC °F PressurehPa in Calm     Humidity % HourlyPrecipMM in
00:02 8.8 °F 4.8 °F 1023.2 in Calm   17.7 mph 76 % 0.0 in
00:07 8.7 °F 4.9 °F 1023.2 in NNE 6.4 mph 12.9 mph 77 % 0.0 in
00:12 8.7 °F 4.9 °F 1023.2 in NE 3.2 mph 12.9 mph 77 % 0.0 in
00:22 8.6 °F 4.6 °F 1023.6 in NNW 3.2 mph 12.9 mph 76 % 0.0 in
00:27 8.4 °F 4.6 °F 1023.6 in NE 9.7 mph 14.5 mph 77 % 0.0 in
00:32 8.3 °F 4.5 °F 1023.6 in East 1.6 mph 14.5 mph 77 % 0.0 in
00:42 8.0 °F 4.2 °F 1023.6 in Calm   12.9 mph 77 % 0.0 in
00:47 7.7 °F 4.1 °F 1023.6 in Calm   9.7 mph 78 % 0.0 in
00:52 7.5 °F 4.1 °F 1023.6 in Calm   9.7 mph 79 % 0.0 in
00:57 7.3 °F 3.9 °F 1023.6 in Calm   4.8 mph 79 % 0.0 in
01:02 7.2 °F 4.0 °F 1023.6 in NE 4.8 mph 4.8 mph 80 % 0.0 in
01:07 7.2 °F 4.0 °F 1023.6 in NE 4.8 mph 6.4 mph 80 % 0.0 in
01:12 6.9 °F 3.7 °F 1023.6 in NNE 3.2 mph 6.4 mph 80 % 0.0 in
01:17 6.6 °F 3.6 °F 1023.6 in Calm   6.4 mph 81 % 0.0 in
01:22 6.4 °F 3.6 °F 1023.6 in Calm   6.4 mph 82 % 0.0 in
01:27 6.4 °F 3.7 °F 1023.6 in NNW 1.6 mph 6.4 mph 83 % 0.0 in
01:32 6.3 °F 3.5 °F 1023.6 in NNW 3.2 mph 4.8 mph 82 % 0.0 in
01:37 6.2 °F 3.5 °F 1023.6 in Calm   4.8 mph 83 % 0.0 in
01:42 6.1 °F 3.4 °F 1023.6 in North 1.6 mph 4.8 mph 83 % 0.0 in
01:52 5.8 °F 3.3 °F 1023.9 in Calm   4.8 mph 84 % 0.0 in
01:57 5.8 °F 3.3 °F 1023.9 in Calm   3.2 mph 84 % 0.0 in
02:02 5.7 °F 3.2 °F 1023.6 in NW 1.6 mph 3.2 mph 84 % 0.0 in
02:07 5.7 °F 3.4 °F 1023.9 in NW 1.6 mph 3.2 mph 85 % 0.0 in
02:12 5.6 °F 3.3 °F 1023.6 in Calm   3.2 mph 85 % 0.0 in
02:17 5.6 °F 3.3 °F 1023.9 in Calm   3.2 mph 85 % 0.0 in
02:22 5.5 °F 3.2 °F 1023.9 in NW 1.6 mph 3.2 mph 85 % 0.0 in
02:27 5.4 °F 3.1 °F 1023.9 in Calm   3.2 mph 85 % 0.0 in
02:32 5.4 °F 3.1 °F 1023.9 in Calm   3.2 mph 85 % 0.0 in
02:37 5.3 °F 3.1 °F 1023.9 in NW 1.6 mph 3.2 mph 86 % 0.0 in
02:42 5.3 °F 3.1 °F 1023.9 in NW 1.6 mph 3.2 mph 86 % 0.0 in
02:47 5.3 °F 3.1 °F 1023.9 in Calm   3.2 mph 86 % 0.0 in
02:52 5.4 °F 3.2 °F 1023.6 in NW 1.6 mph 3.2 mph 86 % 0.0 in
02:57 5.4 °F 3.2 °F 1023.9 in NNW 1.6 mph 3.2 mph 86 % 0.0 in
03:02 5.3 °F 3.1 °F 1023.6 in Calm   3.2 mph 86 % 0.0 in
03:07 5.3 °F 3.1 °F 1023.6 in NNW 1.6 mph 4.8 mph 86 % 0.0 in
03:12 5.2 °F 3.1 °F 1023.6 in Calm   4.8 mph 86 % 0.0 in
03:17 5.1 °F 3.0 °F 1023.6 in Calm   4.8 mph 86 % 0.0 in
03:22 5.1 °F 3.0 °F 1023.6 in Calm   3.2 mph 86 % 0.0 in
03:27 5.1 °F 3.0 °F 1023.6 in Calm   3.2 mph 86 % 0.0 in
03:32 5.0 °F 2.9 °F 1023.6 in WNW 1.6 mph 3.2 mph 86 % 0.0 in
03:37 4.9 °F 2.8 °F 1023.6 in Calm   3.2 mph 86 % 0.0 in
03:42 4.9 °F 2.8 °F 1023.6 in Calm   3.2 mph 86 % 0.0 in
03:47 4.9 °F 2.8 °F 1023.6 in NW 1.6 mph 1.6 mph 86 % 0.0 in
03:52 4.8 °F 2.7 °F 1023.6 in NW 1.6 mph 1.6 mph 86 % 0.0 in
03:57 4.7 °F 2.6 °F 1023.6 in Calm   1.6 mph 86 % 0.0 in
04:02 4.6 °F 2.6 °F 1023.6 in NW 1.6 mph 1.6 mph 87 % 0.0 in
04:07 4.6 °F 2.6 °F 1023.6 in Calm   3.2 mph 87 % 0.0 in
04:12 4.5 °F 2.5 °F 1023.6 in Calm   3.2 mph 87 % 0.0 in
04:17 4.4 °F 2.3 °F 1023.9 in West 3.2 mph 3.2 mph 86 % 0.0 in
04:22 4.4 °F 2.6 °F 1023.6 in NW 1.6 mph 4.8 mph 88 % 0.0 in
04:27 4.5 °F 2.7 °F 1023.9 in NW 3.2 mph 4.8 mph 88 % 0.0 in
04:32 4.6 °F 2.8 °F 1023.9 in NW 3.2 mph 4.8 mph 88 % 0.0 in
04:37 4.7 °F 2.7 °F 1023.9 in WNW 1.6 mph 4.8 mph 87 % 0.0 in
04:47 4.5 °F 2.5 °F 1023.9 in NW 1.6 mph 4.8 mph 87 % 0.0 in
04:52 4.4 °F 2.6 °F 1023.9 in NW 1.6 mph 4.8 mph 88 % 0.0 in
05:02 4.2 °F 2.4 °F 1023.9 in NW 1.6 mph 4.8 mph 88 % 0.0 in
05:12 4.0 °F 2.2 °F 1023.9 in NNW 3.2 mph 3.2 mph 88 % 0.0 in
05:17 3.9 °F 2.1 °F 1024.3 in NNW 6.4 mph 6.4 mph 88 % 0.0 in
05:22 4.0 °F 2.2 °F 1024.3 in North 3.2 mph 12.9 mph 88 % 0.0 in
05:27 4.0 °F 2.2 °F 1024.3 in NNW 8.0 mph 12.9 mph 88 % 0.0 in
05:32 4.0 °F 2.2 °F 1024.3 in NW 3.2 mph 12.9 mph 88 % 0.0 in
05:37 4.0 °F 2.2 °F 1024.3 in NNE 4.8 mph 12.9 mph 88 % 0.0 in
05:42 3.9 °F 2.1 °F 1024.3 in NW 1.6 mph 12.9 mph 88 % 0.0 in
05:52 3.7 °F 1.9 °F 1024.3 in NNE 1.6 mph 9.7 mph 88 % 0.0 in
06:02 3.6 °F 1.6 °F 1024.3 in ENE 1.6 mph 8.0 mph 87 % 0.0 in
06:07 3.5 °F 1.5 °F 1024.3 in NE 1.6 mph 9.7 mph 87 % 0.0 in
06:12 3.3 °F 1.3 °F 1024.3 in NNE 4.8 mph 9.7 mph 87 % 0.0 in
06:17 3.3 °F 1.3 °F 1024.3 in NNE 1.6 mph 6.4 mph 87 % 0.0 in
06:22 3.2 °F 1.1 °F 1024.3 in NNE 1.6 mph 6.4 mph 86 % 0.0 in
06:32 2.9 °F 0.8 °F 1024.3 in Calm   6.4 mph 86 % 0.0 in
06:37 2.9 °F 0.8 °F 1024.6 in North 3.2 mph 4.8 mph 86 % 0.0 in
06:42 2.9 °F 0.8 °F 1024.6 in NNW 6.4 mph 6.4 mph 86 % 0.0 in
06:47 2.9 °F 0.6 °F 1024.6 in NNW 3.2 mph 8.0 mph 85 % 0.0 in
06:52 3.0 °F 0.6 °F 1024.6 in NNE 1.6 mph 8.0 mph 84 % 0.0 in
06:57 2.8 °F 0.4 °F 1024.6 in North 6.4 mph 14.5 mph 84 % 0.0 in
07:02 2.7 °F 0.4 °F 1024.6 in North 1.6 mph 14.5 mph 85 % 0.0 in
07:12 2.7 °F 0.4 °F 1024.9 in Calm   11.3 mph 85 % 0.0 in
07:17 2.8 °F 0.4 °F 1024.9 in NE 3.2 mph 8.0 mph 84 % 0.0 in
07:22 2.9 °F 0.5 °F 1024.9 in NNE 4.8 mph 8.0 mph 84 % 0.0 in
07:32 3.1 °F 0.5 °F 1024.9 in NE 1.6 mph 6.4 mph 83 % 0.0 in
07:42 3.1 °F 0.3 °F 1024.9 in North 1.6 mph 8.0 mph 82 % 0.0 in
07:47 3.2 °F 0.4 °F 1025.3 in NNE 1.6 mph 8.0 mph 82 % 0.0 in
07:52 3.4 °F 0.6 °F 1025.3 in NNE 1.6 mph 8.0 mph 82 % 0.0 in
07:57 3.6 °F 0.8 °F 1025.3 in Calm   4.8 mph 82 % 0.0 in
08:02 3.7 °F 0.9 °F 1025.6 in North 1.6 mph 4.8 mph 82 % 0.0 in
08:12 4.1 °F 1.1 °F 1025.6 in North 4.8 mph 12.9 mph 81 % 0.0 in
08:17 4.2 °F 1.1 °F 1025.6 in NNE 8.0 mph 12.9 mph 80 % 0.0 in
08:22 4.3 °F 1.2 °F 1026.0 in North 6.4 mph 12.9 mph 80 % 0.0 in
08:32 4.5 °F 1.2 °F 1026.0 in NNE 4.8 mph 14.5 mph 79 % 0.0 in
08:37 4.7 °F 1.4 °F 1026.0 in NNE 6.4 mph 17.7 mph 79 % 0.0 in
08:42 4.9 °F 1.6 °F 1026.0 in NW 4.8 mph 17.7 mph 79 % 0.0 in
08:52 5.1 °F 1.0 °F 1026.0 in NNE 6.4 mph 17.7 mph 75 % 0.0 in
08:57 5.3 °F 1.2 °F 1026.3 in NE 4.8 mph 24.1 mph 75 % 0.0 in
09:07 5.5 °F 0.9 °F 1026.3 in East 4.8 mph 20.9 mph 72 % 0.0 in
09:12 5.7 °F 0.9 °F 1026.3 in North 8.0 mph 20.9 mph 71 % 0.0 in
09:17 5.8 °F 1.1 °F 1026.3 in NNE 16.1 mph 20.9 mph 72 % 0.0 in
09:22 5.8 °F 0.8 °F 1026.3 in NNE 12.9 mph 20.9 mph 70 % 0.0 in
09:32 5.9 °F 1.0 °F 1026.6 in NNE 12.9 mph 20.9 mph 71 % 0.0 in
09:42 6.1 °F 1.2 °F 1026.6 in North 4.8 mph 22.5 mph 71 % 0.0 in
09:52 6.2 °F 1.3 °F 1026.6 in NE 4.8 mph 19.3 mph 71 % 0.0 in
10:02 6.4 °F 1.3 °F 1026.6 in ENE 4.8 mph 19.3 mph 70 % 0.0 in
10:12 6.7 °F 1.4 °F 1026.6 in NE 8.0 mph 20.9 mph 69 % 0.0 in
10:17 6.8 °F 1.7 °F 1026.6 in NE 6.4 mph 20.9 mph 70 % 0.0 in
10:22 6.7 °F 0.8 °F 1026.6 in ENE 11.3 mph 20.9 mph 66 % 0.0 in
10:32 7.2 °F 1.5 °F 1026.6 in ENE 4.8 mph 24.1 mph 67 % 0.0 in
10:42 7.4 °F 1.0 °F 1026.6 in NE 9.7 mph 24.1 mph 64 % 0.0 in
10:47 7.6 °F 1.0 °F 1027.0 in NE 6.4 mph 22.5 mph 63 % 0.0 in
10:52 7.7 °F 0.9 °F 1027.0 in NE 8.0 mph 22.5 mph 62 % 0.0 in
11:02 7.8 °F 0.3 °F 1027.0 in NNE 25.7 mph 25.7 mph 59 % 0.0 in
11:12 8.1 °F 0.3 °F 1027.0 in NNE 16.1 mph 27.4 mph 58 % 0.0 in
11:17 8.0 °F -0.2 °F 1027.0 in NE 4.8 mph 27.4 mph 56 % 0.0 in
11:22 8.2 °F -0.1 °F 1027.0 in NNE 16.1 mph 27.4 mph 56 % 0.0 in
11:32 8.8 °F 0.0 °F 1027.0 in NE 19.3 mph 20.9 mph 54 % 0.0 in
11:37 8.7 °F -0.4 °F 1027.0 in NE 12.9 mph 27.4 mph 53 % 0.0 in
11:42 8.8 °F 0.0 °F 1027.0 in NNE 9.7 mph 27.4 mph 54 % 0.0 in
11:47 8.7 °F -0.4 °F 1027.0 in North 25.7 mph 27.4 mph 53 % 0.0 in
11:52 8.8 °F 0.3 °F 1027.0 in NE 12.9 mph 25.7 mph 55 % 0.0 in
11:57 8.9 °F 0.3 °F 1027.0 in East 9.7 mph 25.7 mph 55 % 0.0 in
12:07 9.1 °F 0.8 °F 1027.0 in NNW 8.0 mph 22.5 mph 56 % 0.0 in
12:12 9.2 °F 0.6 °F 1027.0 in NNW 14.5 mph 20.9 mph 55 % 0.0 in
12:17 9.3 °F 0.2 °F 1027.0 in North 6.4 mph 20.9 mph 53 % 0.0 in
12:22 9.2 °F -0.1 °F 1027.0 in NNE 8.0 mph 22.5 mph 52 % 0.0 in
12:32 9.4 °F 0.0 °F 1027.0 in NE 12.9 mph 25.7 mph 52 % 0.0 in
12:42 9.8 °F 0.9 °F 1027.0 in NNE 8.0 mph 22.5 mph 54 % 0.0 in
12:47 9.8 °F -0.1 °F 1027.0 in NNW 12.9 mph 22.5 mph 50 % 0.0 in
12:52 9.6 °F 0.0 °F 1027.0 in NNW 17.7 mph 24.1 mph 51 % 0.0 in
12:57 9.9 °F 0.2 °F 1027.0 in NE 9.7 mph 24.1 mph 51 % 0.0 in
13:02 10.1 °F -0.1 °F 1027.0 in NNE 12.9 mph 24.1 mph 49 % 0.0 in
13:07 10.3 °F 0.6 °F 1027.0 in NE 9.7 mph 24.1 mph 51 % 0.0 in
13:12 10.2 °F -0.6 °F 1027.0 in ENE 14.5 mph 32.2 mph 47 % 0.0 in
13:17 10.2 °F -0.3 °F 1027.0 in NE 12.9 mph 32.2 mph 48 % 0.0 in
13:22 10.3 °F -0.2 °F 1027.0 in NE 20.9 mph 32.2 mph 48 % 0.0 in
13:27 10.4 °F -0.4 °F 1027.0 in NE 17.7 mph 27.4 mph 47 % 0.0 in
13:32 10.3 °F 0.0 °F 1027.0 in ENE 9.7 mph 27.4 mph 49 % 0.0 in
13:37 10.4 °F -0.1 °F 1026.6 in NNW 4.8 mph 27.4 mph 48 % 0.0 in
13:42 10.7 °F 0.4 °F 1027.0 in North 11.3 mph 29.0 mph 49 % 0.0 in
13:47 10.7 °F 0.1 °F 1027.0 in NE 8.0 mph 29.0 mph 48 % 0.0 in
13:52 10.3 °F -0.8 °F 1026.6 in NNE 17.7 mph 25.7 mph 46 % 0.0 in
13:57 10.2 °F 0.0 °F 1027.0 in NNW 14.5 mph 25.7 mph 49 % 0.0 in
14:02 10.1 °F -0.4 °F 1027.0 in NNW 8.0 mph 25.7 mph 48 % 0.0 in
14:07 10.5 °F 0.2 °F 1026.6 in NW 8.0 mph 27.4 mph 49 % 0.0 in
14:12 10.5 °F -0.1 °F 1027.0 in NW 16.1 mph 27.4 mph 48 % 0.0 in
14:17 10.4 °F 0.1 °F 1026.6 in WNW 6.4 mph 30.6 mph 49 % 0.0 in
14:22 10.7 °F 0.4 °F 1026.6 in NW 11.3 mph 30.6 mph 49 % 0.0 in
14:27 10.9 °F 0.3 °F 1027.0 in North 24.1 mph 30.6 mph 48 % 0.0 in
14:32 10.7 °F -0.5 °F 1027.0 in NW 9.7 mph 30.6 mph 46 % 0.0 in
14:42 10.2 °F -0.9 °F 1027.0 in North 14.5 mph 32.2 mph 46 % 0.0 in
14:47 10.3 °F -0.2 °F 1026.6 in NNE 19.3 mph 32.2 mph 48 % 0.0 in
14:52 10.4 °F 0.7 °F 1027.0 in NE 14.5 mph 32.2 mph 51 % 0.0 in
14:57 10.2 °F -0.3 °F 1027.0 in NNE 24.1 mph 29.0 mph 48 % 0.0 in
15:02 9.8 °F -0.4 °F 1027.0 in NNE 8.0 mph 29.0 mph 49 % 0.0 in
15:07 10.1 °F 0.4 °F 1026.6 in NNE 9.7 mph 29.0 mph 51 % 0.0 in
15:12 10.6 °F 0.6 °F 1026.6 in North 9.7 mph 29.0 mph 50 % 0.0 in
15:17 10.7 °F -0.2 °F 1026.6 in NNE 8.0 mph 25.7 mph 47 % 0.0 in
15:22 10.6 °F 0.9 °F 1026.6 in NNW 20.9 mph 25.7 mph 51 % 0.0 in
15:27 10.4 °F 0.1 °F 1026.6 in NNE 8.0 mph 20.9 mph 49 % 0.0 in
15:32 10.3 °F 0.6 °F 1026.6 in North 11.3 mph 20.9 mph 51 % 0.0 in
15:37 10.2 °F 0.2 °F 1026.6 in NNW 14.5 mph 22.5 mph 50 % 0.0 in
15:42 10.6 °F 0.6 °F 1026.6 in NNE 22.5 mph 24.1 mph 50 % 0.0 in
15:47 10.7 °F 1.5 °F 1026.6 in East 6.4 mph 29.0 mph 53 % 0.0 in
15:52 10.4 °F 1.2 °F 1026.6 in NE 4.8 mph 29.0 mph 53 % 0.0 in
15:57 10.2 °F 0.8 °F 1026.6 in ENE 9.7 mph 29.0 mph 52 % 0.0 in
16:02 10.7 °F 1.2 °F 1026.6 in NNE 12.9 mph 29.0 mph 52 % 0.0 in
16:07 11.2 °F 1.4 °F 1026.6 in North 25.7 mph 29.0 mph 51 % 0.0 in
16:12 11.2 °F 1.7 °F 1026.6 in NNE 17.7 mph 30.6 mph 52 % 0.0 in
16:17 10.7 °F 1.8 °F 1026.6 in NNE 17.7 mph 33.8 mph 54 % 0.0 in
16:22 10.2 °F 1.8 °F 1026.6 in NNE 22.5 mph 33.8 mph 56 % 0.0 in
16:27 9.9 °F 1.3 °F 1027.0 in NNW 17.7 mph 33.8 mph 55 % 0.0 in
16:37 10.2 °F 1.8 °F 1026.6 in NNE 20.9 mph 32.2 mph 56 % 0.0 in
16:47 10.2 °F 1.3 °F 1027.0 in NNW 12.9 mph 29.0 mph 54 % 0.0 in
16:52 10.0 °F 1.4 °F 1027.0 in NNW 14.5 mph 29.0 mph 55 % 0.0 in
16:57 9.9 °F 0.8 °F 1027.0 in NW 12.9 mph 29.0 mph 53 % 0.0 in
17:02 9.8 °F 1.4 °F 1027.0 in North 14.5 mph 29.0 mph 56 % 0.0 in
17:12 9.8 °F 1.7 °F 1027.0 in North 9.7 mph 32.2 mph 57 % 0.0 in
17:17 9.7 °F 2.1 °F 1027.0 in NNW 12.9 mph 32.2 mph 59 % 0.0 in
17:22 9.4 °F 1.8 °F 1027.0 in NNW 17.7 mph 25.7 mph 59 % 0.0 in
17:27 9.1 °F 1.3 °F 1027.0 in North 14.5 mph 25.7 mph 58 % 0.0 in
17:32 9.3 °F 1.2 °F 1027.0 in NW 11.3 mph 25.7 mph 57 % 0.0 in
17:37 9.4 °F 1.3 °F 1027.0 in NW 8.0 mph 20.9 mph 57 % 0.0 in
17:42 9.5 °F 1.4 °F 1027.0 in North 11.3 mph 22.5 mph 57 % 0.0 in
17:47 9.4 °F 1.6 °F 1027.0 in NNE 20.9 mph 25.7 mph 58 % 0.0 in
17:52 9.6 °F 2.0 °F 1027.0 in NNW 4.8 mph 25.7 mph 59 % 0.0 in
17:57 9.8 °F 1.9 °F 1027.0 in North 12.9 mph 25.7 mph 58 % 0.0 in
18:02 9.9 °F 1.5 °F 1027.0 in NNW 12.9 mph 25.7 mph 56 % 0.0 in
18:12 9.6 °F 1.0 °F 1027.0 in North 16.1 mph 25.7 mph 55 % 0.0 in
18:17 9.5 °F 1.2 °F 1027.0 in NNW 17.7 mph 25.7 mph 56 % 0.0 in
18:22 9.7 °F 1.1 °F 1027.0 in NW 8.0 mph 25.7 mph 55 % 0.0 in
18:27 9.7 °F 0.3 °F 1027.0 in NNE 11.3 mph 25.7 mph 52 % 0.0 in
18:32 9.7 °F 0.0 °F 1027.0 in North 19.3 mph 20.9 mph 51 % 0.0 in
18:42 9.2 °F 1.6 °F 1027.0 in North 12.9 mph 20.9 mph 59 % 0.0 in
18:52 8.4 °F 2.0 °F 1027.0 in East 8.0 mph 32.2 mph 64 % 0.0 in
18:57 7.8 °F 2.1 °F 1027.3 in ENE 16.1 mph 22.5 mph 67 % 0.0 in
19:07 7.2 °F 2.3 °F 1027.3 in ENE 6.4 mph 17.7 mph 71 % 0.0 in
19:12 6.9 °F 2.2 °F 1027.3 in NE 6.4 mph 16.1 mph 72 % 0.0 in
19:17 6.7 °F 2.2 °F 1027.3 in NE 4.8 mph 17.7 mph 73 % 0.0 in
19:22 6.6 °F 2.3 °F 1027.3 in NE 4.8 mph 17.7 mph 74 % 0.0 in
19:27 6.4 °F 2.1 °F 1027.7 in ENE 4.8 mph 17.7 mph 74 % 0.0 in
19:32 6.3 °F 2.2 °F 1027.7 in NE 8.0 mph 17.7 mph 75 % 0.0 in
19:37 6.2 °F 2.1 °F 1027.7 in NE 6.4 mph 11.3 mph 75 % 0.0 in
19:42 6.2 °F 2.3 °F 1027.7 in NE 4.8 mph 11.3 mph 76 % 0.0 in
19:47 6.2 °F 2.1 °F 1027.7 in NNE 8.0 mph 11.3 mph 75 % 0.0 in
19:52 6.1 °F 2.2 °F 1027.7 in East 1.6 mph 11.3 mph 76 % 0.0 in
19:57 6.0 °F 2.1 °F 1027.7 in NE 1.6 mph 11.3 mph 76 % 0.0 in
20:02 6.1 °F 2.4 °F 1027.7 in ENE 1.6 mph 11.3 mph 77 % 0.0 in
20:12 6.3 °F 2.4 °F 1027.7 in Calm   4.8 mph 76 % 0.0 in
20:17 6.2 °F 2.3 °F 1028.0 in Calm   3.2 mph 76 % 0.0 in
20:22 6.2 °F 2.3 °F 1028.0 in Calm   3.2 mph 76 % 0.0 in
20:32 5.8 °F 2.1 °F 1028.0 in Calm   3.2 mph 77 % 0.0 in
20:42 5.4 °F 2.1 °F 1028.0 in Calm   1.6 mph 79 % 0.0 in
20:47 5.3 °F 2.0 °F 1028.0 in Calm   1.6 mph 79 % 0.0 in
20:52 5.2 °F 2.0 °F 1028.3 in Calm   1.6 mph 80 % 0.0 in
20:57 5.1 °F 2.1 °F 1028.3 in Calm   3.2 mph 81 % 0.0 in
21:02 4.9 °F 1.7 °F 1028.3 in Calm   3.2 mph 80 % 0.0 in
21:07 4.7 °F 1.7 °F 1028.3 in Calm   3.2 mph 81 % 0.0 in
21:12 4.6 °F 1.8 °F 1028.3 in Calm   1.6 mph 82 % 0.0 in
21:17 4.7 °F 1.9 °F 1028.3 in Calm   1.6 mph 82 % 0.0 in
21:22 4.6 °F 1.6 °F 1028.3 in Calm   1.6 mph 81 % 0.0 in
21:27 4.6 °F 1.8 °F 1028.7 in Calm   1.6 mph 82 % 0.0 in
21:32 4.6 °F 1.8 °F 1028.7 in Calm   1.6 mph 82 % 0.0 in
21:37 4.4 °F 1.6 °F 1028.7 in Calm   3.2 mph 82 % 0.0 in
21:42 4.4 °F 1.6 °F 1028.7 in NW 1.6 mph 3.2 mph 82 % 0.0 in
21:47 4.3 °F 1.5 °F 1028.7 in NW 1.6 mph 3.2 mph 82 % 0.0 in
21:52 4.3 °F 1.5 °F 1028.7 in Calm   3.2 mph 82 % 0.0 in
22:02 3.9 °F 1.3 °F 1028.7 in Calm   4.8 mph 83 % 0.0 in
22:12 3.6 °F 1.2 °F 1028.7 in Calm   3.2 mph 84 % 0.0 in
22:17 3.6 °F 1.2 °F 1028.7 in NNE 1.6 mph 4.8 mph 84 % 0.0 in
22:22 3.5 °F 1.1 °F 1028.7 in North 1.6 mph 6.4 mph 84 % 0.0 in
22:27 3.4 °F 1.0 °F 1028.7 in NNE 1.6 mph 6.4 mph 84 % 0.0 in
22:32 3.3 °F 1.0 °F 1029.0 in Calm   6.4 mph 85 % 0.0 in
22:37 3.4 °F 1.1 °F 1029.0 in Calm   6.4 mph 85 % 0.0 in
22:42 3.5 °F 1.2 °F 1029.0 in Calm   8.0 mph 85 % 0.0 in
22:47 3.6 °F 1.3 °F 1029.0 in Calm   8.0 mph 85 % 0.0 in
22:52 3.6 °F 1.2 °F 1029.0 in NNE 3.2 mph 4.8 mph 84 % 0.0 in
22:57 3.6 °F 1.2 °F 1029.0 in Calm   4.8 mph 84 % 0.0 in
23:07 3.4 °F 1.0 °F 1029.0 in NNE 1.6 mph 3.2 mph 84 % 0.0 in
23:12 3.4 °F 1.1 °F 1029.0 in NNE 1.6 mph 4.8 mph 85 % 0.0 in
23:17 3.4 °F 1.1 °F 1029.0 in Calm   4.8 mph 85 % 0.0 in
23:22 3.5 °F 1.2 °F 1029.0 in Calm   4.8 mph 85 % 0.0 in
23:32 3.5 °F 1.1 °F 1029.0 in NNE 4.8 mph 6.4 mph 84 % 0.0 in
23:37 3.7 °F 1.2 °F 1029.0 in NE 1.6 mph 8.0 mph 84 % 0.0 in
23:42 3.9 °F 1.4 °F 1029.3 in Calm   9.7 mph 84 % 0.0 in
23:47 4.1 °F 1.5 °F 1029.3 in North 6.4 mph 9.7 mph 83 % 0.0 in
23:52 4.0 °F 1.4 °F 1029.0 in NNE 6.4 mph 11.3 mph 83 % 0.0 in
23:57 4.0 °F 1.4 °F 1029.3 in NNE 6.4 mph 11.3 mph 83 % 0.0 in
Meteo18
Compliments of Weather Underground - 4 mb

Script developed by  Jim McMurry - jmcmurry@mwt.net Adapted for the template by  Wim van der Kuil - Leuven-Template.eu

You find our weather info also at:

European Weather Network

Weather Underground

Equipment we use:

Weather-station
Davis Vue

Weather-program
Meteobridge

Weather-server
Raspberry PI 2 B+

Provider
1 and 1

Davis Vue

Meteobridge

Raspberry PI 2 B+

1 and 1